Time;durP1;ratioP1;P1;durP2;ratioP2;P2;SDS_P1;SDS_P2;PMS_P1;PMS_P2;Temp;Humidity;BMP_temperature;BMP_pressure;BME280_temperature;BME280_humidity;BME280_pressure;Samples;Min_cycle;Max_cycle;Signal;HPM_P1;HPM_P2
2022/12/25 00:00:05;;;;;;;11.40;7.58;;;;;;;2.38;100.00;100378.34;1712932;83;21091;-58
2022/12/25 00:02:32;;;;;;;13.15;7.62;;;;;;;2.38;100.00;100383.49;1712385;83;21875;-63
2022/12/25 00:05:01;;;;;;;12.23;7.92;;;;;;;2.36;100.00;100380.25;1717037;83;21822;-60
2022/12/25 00:07:29;;;;;;;11.75;7.83;;;;;;;2.35;100.00;100382.48;1719927;83;21807;-59
2022/12/25 00:09:56;;;;;;;13.20;8.55;;;;;;;2.34;100.00;100382.12;1719811;83;20947;-59
2022/12/25 00:12:23;;;;;;;12.98;9.00;;;;;;;2.35;100.00;100379.07;1720054;83;21025;-63
2022/12/25 00:14:50;;;;;;;12.58;8.95;;;;;;;2.30;100.00;100378.64;1719257;83;21235;-59
2022/12/25 00:17:17;;;;;;;15.53;9.48;;;;;;;2.33;100.00;100378.40;1719439;83;21070;-59
2022/12/25 00:19:45;;;;;;;17.75;10.55;;;;;;;2.33;100.00;100383.55;1720046;83;21529;-59
2022/12/25 00:22:14;;;;;;;17.60;10.65;;;;;;;2.32;100.00;100383.20;1719974;82;21053;-59
2022/12/25 00:24:41;;;;;;;18.15;10.25;;;;;;;2.30;100.00;100377.36;1719225;83;20919;-61
2022/12/25 00:27:08;;;;;;;13.08;8.83;;;;;;;2.31;100.00;100381.55;1720215;83;21912;-62
2022/12/25 00:29:36;;;;;;;13.70;9.45;;;;;;;2.29;100.00;100374.45;1719512;83;20995;-59
2022/12/25 00:32:04;;;;;;;14.58;9.00;;;;;;;2.29;100.00;100374.45;1720182;83;21565;-59
2022/12/25 00:34:31;;;;;;;13.13;8.78;;;;;;;2.25;100.00;100363.60;1719631;83;21489;-64
2022/12/25 00:36:59;;;;;;;13.80;8.88;;;;;;;2.31;100.00;100366.13;1719714;83;20943;-59
2022/12/25 00:39:27;;;;;;;12.43;8.40;;;;;;;2.31;100.00;100366.96;1719547;83;21267;-60
2022/12/25 00:44:40;;;;;;;14.65;9.63;;;;;;;2.33;100.00;100362.97;1718861;83;20995;-59
2022/12/25 00:47:07;;;;;;;12.58;8.20;;;;;;;2.31;100.00;100360.98;1719426;83;21081;-64
2022/12/25 00:49:34;;;;;;;16.85;10.43;;;;;;;2.30;100.00;100361.45;1720385;83;21144;-60
2022/12/25 00:52:02;;;;;;;20.82;12.63;;;;;;;2.29;100.00;100364.16;1719914;82;21312;-60
2022/12/25 00:54:29;;;;;;;13.90;9.58;;;;;;;2.26;100.00;100365.22;1719495;83;20962;-64
2022/12/25 00:56:57;;;;;;;14.03;8.35;;;;;;;2.29;100.00;100363.69;1719672;83;21884;-63
2022/12/25 00:59:24;;;;;;;12.37;8.78;;;;;;;2.31;100.00;100362.27;1719574;83;21019;-59
2022/12/25 01:01:52;;;;;;;13.32;9.15;;;;;;;2.28;100.00;100369.78;1720111;83;21101;-59
2022/12/25 01:04:19;;;;;;;15.35;9.48;;;;;;;2.26;100.00;100368.27;1717621;83;21296;-60
2022/12/25 01:06:47;;;;;;;12.90;8.18;;;;;;;2.25;100.00;100364.89;1712276;83;21437;-60
2022/12/25 01:12:13;;;;;;;14.13;9.40;;;;;;;2.26;100.00;100370.37;1708197;83;20968;-60
2022/12/25 01:14:40;;;;;;;13.43;8.58;;;;;;;2.27;100.00;100367.31;1684757;84;21154;-60
2022/12/25 01:17:08;;;;;;;13.30;8.98;;;;;;;2.26;100.00;100366.98;1680596;84;21147;-60
2022/12/25 01:19:35;;;;;;;16.40;9.70;;;;;;;2.23;100.00;100364.18;1680733;84;21456;-60
2022/12/25 01:22:03;;;;;;;14.70;9.50;;;;;;;2.22;100.00;100363.84;1681300;85;20996;-60
2022/12/25 01:24:30;;;;;;;13.20;8.85;;;;;;;2.21;100.00;100368.66;1680521;85;21360;-63
2022/12/25 01:26:59;;;;;;;14.40;9.68;;;;;;;2.24;100.00;100367.59;1681362;85;21300;-64
2022/12/25 01:29:26;;;;;;;14.63;9.33;;;;;;;2.22;100.00;100360.47;1680990;85;21264;-60
2022/12/25 01:31:54;;;;;;;12.78;8.88;;;;;;;2.22;100.00;100365.13;1681062;84;20959;-59
2022/12/25 01:34:22;;;;;;;14.53;8.80;;;;;;;2.21;100.00;100367.84;1680784;84;21043;-64
2022/12/25 01:36:49;;;;;;;15.72;9.78;;;;;;;2.17;100.00;100364.23;1680698;84;20939;-61
2022/12/25 01:39:16;;;;;;;14.78;9.70;;;;;;;2.15;100.00;100368.67;1680819;84;21012;-61
2022/12/25 01:41:44;;;;;;;14.38;9.65;;;;;;;2.14;100.00;100370.91;1680836;84;21252;-60
2022/12/25 01:44:17;;;;;;;16.65;9.90;;;;;;;2.13;100.00;100376.19;1680861;84;20994;-60
2022/12/25 01:46:44;;;;;;;15.35;9.75;;;;;;;2.11;100.00;100376.30;1681100;85;21029;-60
2022/12/25 01:49:20;;;;;;;13.75;9.08;;;;;;;2.09;100.00;100374.34;1681179;84;21035;-65
2022/12/25 01:51:51;;;;;;;15.88;9.53;;;;;;;2.07;100.00;100370.25;1681283;84;21455;-61
2022/12/25 01:54:22;;;;;;;16.23;10.08;;;;;;;2.05;100.00;100368.29;1680810;84;21148;-61
2022/12/25 01:56:50;;;;;;;14.35;9.15;;;;;;;2.01;100.00;100368.16;1680923;85;21594;-60
2022/12/25 01:59:18;;;;;;;15.58;9.80;;;;;;;1.99;100.00;100369.59;1681084;84;20972;-61
2022/12/25 02:01:46;;;;;;;16.65;9.35;;;;;;;1.98;100.00;100369.25;1680973;85;21004;-60
2022/12/25 02:04:38;;;;;;;14.10;9.03;;;;;;;1.99;100.00;100370.06;1680676;85;21086;-62
2022/12/25 02:07:08;;;;;;;15.13;10.03;;;;;;;2.00;100.00;100372.97;1680456;84;21938;-62
2022/12/25 02:09:36;;;;;;;14.90;9.40;;;;;;;1.98;100.00;100368.44;1680980;84;21971;-64
2022/12/25 02:12:04;;;;;;;16.15;10.70;;;;;;;2.00;100.00;100365.26;1681004;84;21823;-60
2022/12/25 02:14:33;;;;;;;15.32;10.23;;;;;;;1.99;100.00;100369.59;1705844;83;21430;-60
2022/12/25 02:17:12;;;;;;;13.90;8.80;;;;;;;1.98;100.00;100365.39;1711148;83;20967;-60
2022/12/25 02:20:16;;;;;;;16.05;9.70;;;;;;;1.97;100.00;100364.22;1687654;83;21719;-61
2022/12/25 02:23:33;;;;;;;16.27;10.13;;;;;;;1.93;100.00;100361.08;1673953;85;20956;-62
2022/12/25 02:26:16;;;;;;;13.55;8.90;;;;;;;1.90;100.00;100367.78;1687350;83;21074;-60
2022/12/25 02:29:04;;;;;;;16.00;10.50;;;;;;;1.83;100.00;100373.06;1700534;83;21002;-59
2022/12/25 02:32:06;;;;;;;16.77;10.85;;;;;;;1.76;100.00;100370.16;1625101;86;21040;-63
2022/12/25 02:35:01;;;;;;;14.43;9.60;;;;;;;1.69;100.00;100370.30;1678153;85;24986;-59
2022/12/25 02:37:53;;;;;;;16.07;10.70;;;;;;;1.62;100.00;100375.11;1708211;82;21565;-60
2022/12/25 02:40:30;;;;;;;16.25;10.13;;;;;;;1.59;100.00;100379.68;1721030;83;20948;-61
2022/12/25 03:08:32;;;;;;;17.35;10.55;;;;;;;1.76;100.00;100402.77;1752908;81;21140;-60
2022/12/25 03:13:52;;;;;;;17.92;10.68;;;;;;;1.80;100.00;100404.14;1744262;81;21835;-59
2022/12/25 03:26:53;;;;;;;16.12;10.08;;;;;;;1.80;100.00;100407.53;1730409;82;20975;-62
2022/12/25 03:27:06;;;;;;;14.70;9.55;;;;;;;1.86;100.00;100407.05;1730716;82;21239;-60
2022/12/25 03:32:45;;;;;;;17.23;10.20;;;;;;;1.89;100.00;100410.63;1730718;82;20932;-59
2022/12/25 03:35:43;;;;;;;17.25;11.18;;;;;;;1.89;100.00;100414.96;1731144;82;21484;-59
2022/12/25 04:37:37;;;;;;;21.82;12.23;;;;;;;2.05;100.00;100430.80;1754867;81;20919;-64
2022/12/25 04:40:06;;;;;;;19.02;11.80;;;;;;;2.06;100.00;100432.91;1755234;81;22332;-61
2022/12/25 04:42:34;;;;;;;18.55;11.48;;;;;;;2.05;100.00;100435.14;1755521;81;21025;-60
2022/12/25 04:45:01;;;;;;;19.30;11.53;;;;;;;2.03;100.00;100432.67;1755487;81;20997;-59
2022/12/25 04:47:28;;;;;;;20.72;12.58;;;;;;;1.98;100.00;100441.70;1755697;81;20994;-59
2022/12/25 04:49:55;;;;;;;19.37;10.93;;;;;;;1.97;100.00;100437.04;1754576;81;21033;-63
2022/12/25 04:52:23;;;;;;;18.85;10.95;;;;;;;1.99;100.00;100437.72;1755665;81;21872;-59
2022/12/25 04:54:50;;;;;;;19.87;11.57;;;;;;;1.99;100.00;100435.14;1755557;81;20990;-59
2022/12/25 04:57:17;;;;;;;17.92;10.78;;;;;;;2.00;100.00;100440.63;1755497;81;20955;-59
2022/12/25 04:59:44;;;;;;;20.00;11.68;;;;;;;2.01;100.00;100440.99;1755533;81;21476;-61
2022/12/25 05:02:12;;;;;;;19.17;11.97;;;;;;;2.01;100.00;100449.99;1755145;81;21037;-62
2022/12/25 05:04:39;;;;;;;19.77;12.13;;;;;;;2.05;100.00;100446.70;1755721;81;21151;-61
2022/12/25 05:07:06;;;;;;;20.80;11.45;;;;;;;2.09;100.00;100450.19;1755789;81;21013;-60
2022/12/25 05:09:34;;;;;;;20.35;10.68;;;;;;;2.10;100.00;100452.28;1755544;81;21001;-60
2022/12/25 05:12:02;;;;;;;18.05;10.58;;;;;;;2.09;100.00;100452.77;1754641;81;20997;-62
2022/12/25 05:14:30;;;;;;;21.12;12.60;;;;;;;2.08;100.00;100456.72;1745887;80;21206;-60
2022/12/25 05:16:57;;;;;;;22.37;11.68;;;;;;;2.09;100.00;100455.33;1731414;82;21284;-60
2022/12/25 05:19:25;;;;;;;20.25;11.33;;;;;;;2.10;100.00;100457.43;1730893;82;21039;-60
2022/12/25 05:21:53;;;;;;;20.37;11.93;;;;;;;2.10;100.00;100451.81;1730388;82;21000;-65
2022/12/25 05:24:21;;;;;;;20.85;11.65;;;;;;;2.11;100.00;100453.44;1730682;82;21133;-60
2022/12/25 05:26:49;;;;;;;21.50;12.53;;;;;;;2.12;100.00;100455.09;1688394;82;21379;-60
2022/12/25 05:29:17;;;;;;;18.50;10.80;;;;;;;2.14;100.00;100456.24;1731118;82;21207;-60
2022/12/25 05:31:44;;;;;;;19.30;11.53;;;;;;;2.13;100.00;100460.57;1712004;82;21505;-61
2022/12/25 05:34:13;;;;;;;22.17;12.03;;;;;;;2.15;100.00;100458.67;1730656;82;21398;-61
2022/12/25 05:36:40;;;;;;;19.23;11.30;;;;;;;2.12;100.00;100456.38;1731086;82;21367;-59
2022/12/25 05:39:07;;;;;;;22.00;11.60;;;;;;;2.12;100.00;100457.66;1731261;82;20947;-59
2022/12/25 05:41:35;;;;;;;22.75;12.85;;;;;;;2.11;100.00;100460.34;1731083;82;21382;-60
2022/12/25 05:44:03;;;;;;;23.05;12.80;;;;;;;2.09;100.00;100462.23;1730848;82;21018;-63
2022/12/25 05:46:36;;;;;;;27.52;14.78;;;;;;;2.09;100.00;100463.05;1731202;82;21054;-61
2022/12/25 05:49:04;;;;;;;32.88;18.50;;;;;;;2.10;100.00;100464.67;1731317;82;21003;-62
2022/12/25 05:51:31;;;;;;;30.35;18.30;;;;;;;2.11;100.00;100468.86;1731049;82;21098;-62
2022/12/25 05:53:59;;;;;;;27.52;15.25;;;;;;;2.13;100.00;100473.43;1730872;82;21246;-59
2022/12/25 05:56:26;;;;;;;24.37;14.10;;;;;;;2.14;100.00;100473.77;1730485;82;21106;-61
2022/12/25 05:58:53;;;;;;;27.02;16.70;;;;;;;2.17;100.00;100476.57;1730910;82;21191;-59
2022/12/25 06:01:23;;;;;;;39.83;21.15;;;;;;;2.17;100.00;100479.95;1731070;82;21560;-59
2022/12/25 06:03:50;;;;;;;40.23;22.60;;;;;;;2.22;100.00;100480.87;1730913;82;20953;-63
2022/12/25 06:06:17;;;;;;;37.08;22.02;;;;;;;2.25;100.00;100486.24;1730716;82;21678;-59
2022/12/25 06:08:45;;;;;;;28.05;14.30;;;;;;;2.27;100.00;100484.34;1730470;82;20928;-59
2022/12/25 06:11:13;;;;;;;21.87;14.00;;;;;;;2.28;100.00;100482.14;1730831;82;21098;-59
2022/12/25 06:13:41;;;;;;;25.05;14.80;;;;;;;2.29;100.00;100483.77;1731225;82;21488;-58
2022/12/25 06:16:10;;;;;;;22.87;13.15;;;;;;;2.30;100.00;100494.39;1753585;81;21124;-62
2022/12/25 06:18:41;;;;;;;19.60;11.68;;;;;;;2.34;100.00;100492.73;1755179;81;21328;-58
2022/12/25 06:21:10;;;;;;;27.62;12.82;;;;;;;2.40;100.00;100492.72;1755780;81;20970;-59
2022/12/25 06:23:38;;;;;;;22.85;12.07;;;;;;;2.47;100.00;100496.43;1756106;81;21014;-59
2022/12/25 06:26:07;;;;;;;20.27;13.38;;;;;;;2.50;100.00;100493.61;1755235;81;21034;-62
2022/12/25 06:28:35;;;;;;;19.23;12.07;;;;;;;2.50;100.00;100496.63;1754880;81;21143;-60
2022/12/25 06:31:09;;;;;;;19.75;11.10;;;;;;;2.52;100.00;100498.63;1755727;81;21891;-61
2022/12/25 06:33:36;;;;;;;24.40;13.08;;;;;;;2.53;100.00;100507.97;1754879;81;20929;-60
2022/12/25 06:36:11;;;;;;;24.98;14.98;;;;;;;2.52;100.00;100504.58;1754346;81;21046;-65
2022/12/25 06:38:40;;;;;;;23.42;13.53;;;;;;;2.55;100.00;100508.20;1755156;81;22064;-60
2022/12/25 06:41:11;;;;;;;22.37;13.22;;;;;;;2.57;100.00;100506.30;1755324;81;20891;-60
2022/12/25 06:43:38;;;;;;;25.32;14.05;;;;;;;2.61;100.00;100503.84;1754649;81;21246;-62
2022/12/25 06:46:08;;;;;;;24.87;14.50;;;;;;;2.59;100.00;100503.14;1755142;81;21739;-61
2022/12/25 06:48:37;;;;;;;23.00;14.60;;;;;;;2.60;100.00;100505.25;1755123;81;20963;-60
2022/12/25 06:51:05;;;;;;;24.27;15.20;;;;;;;2.63;100.00;100501.95;1755173;81;21009;-59
2022/12/25 06:53:33;;;;;;;27.50;16.00;;;;;;;2.67;100.00;100501.23;1754807;81;21045;-63
2022/12/25 06:56:08;;;;;;;24.77;15.98;;;;;;;2.63;100.00;100506.28;1755486;81;21694;-59
2022/12/25 06:58:35;;;;;;;24.50;15.65;;;;;;;2.60;100.00;100502.67;1755150;81;20966;-60
2022/12/25 07:01:13;;;;;;;25.92;16.02;;;;;;;2.65;100.00;100509.09;1755120;81;20942;-60
2022/12/25 07:03:37;;;;;;;26.25;16.40;;;;;;;2.71;100.00;100505.66;1753729;81;21003;-61
2022/12/25 07:06:05;;;;;;;24.35;15.70;;;;;;;2.73;100.00;100504.59;1755274;81;21917;-62
2022/12/25 07:08:33;;;;;;;27.98;16.23;;;;;;;2.78;100.00;100506.79;1755194;81;21695;-60
2022/12/25 07:11:00;;;;;;;26.65;16.02;;;;;;;2.82;100.00;100507.69;1755461;81;20985;-59
2022/12/25 07:13:28;;;;;;;23.50;14.95;;;;;;;2.87;100.00;100506.02;1754806;81;21062;-60
2022/12/25 07:16:00;;;;;;;23.70;15.05;;;;;;;2.91;100.00;100511.25;1754748;80;22444;-60
2022/12/25 07:18:28;;;;;;;22.98;15.50;;;;;;;2.96;100.00;100510.89;1749208;81;21725;-59
2022/12/25 07:20:58;;;;;;;23.22;14.45;;;;;;;3.00;100.00;100509.22;1753892;81;21246;-60
2022/12/25 07:23:25;;;;;;;21.12;14.18;;;;;;;3.03;100.00;100516.70;1754382;80;21323;-61
2022/12/25 07:25:54;;;;;;;25.27;14.95;;;;;;;3.08;100.00;100515.83;1755065;81;20997;-59
2022/12/25 07:28:22;;;;;;;26.60;16.65;;;;;;;3.16;100.00;100514.71;1754718;81;21074;-63
2022/12/25 07:30:49;;;;;;;29.82;16.70;;;;;;;3.26;100.00;100517.34;1754878;81;20967;-60
2022/12/25 07:33:16;;;;;;;26.23;17.15;;;;;;;3.34;100.00;100521.84;1755111;81;21121;-60
2022/12/25 07:35:43;;;;;;;28.23;17.40;;;;;;;3.34;100.00;100523.95;1754483;81;20918;-61
2022/12/25 07:38:11;;;;;;;26.40;16.50;;;;;;;3.33;100.00;100523.61;1755262;81;21563;-60
2022/12/25 07:40:39;;;;;;;28.38;18.12;;;;;;;3.38;100.00;100520.16;1754386;81;21460;-60
2022/12/25 07:43:07;;;;;;;33.05;20.55;;;;;;;3.46;100.00;100518.70;1755085;81;21136;-60
2022/12/25 07:45:34;;;;;;;30.57;18.30;;;;;;;3.50;100.00;100514.44;1754767;81;21251;-65
2022/12/25 07:48:01;;;;;;;30.08;16.37;;;;;;;3.54;100.00;100514.99;1755040;81;21702;-61
2022/12/25 07:50:29;;;;;;;29.05;17.75;;;;;;;3.59;100.00;100520.08;1754881;81;20986;-65
2022/12/25 07:52:56;;;;;;;29.20;16.55;;;;;;;3.62;100.00;100521.11;1754889;81;21472;-61
2022/12/25 07:55:24;;;;;;;27.90;17.02;;;;;;;3.63;100.00;100517.58;1755297;81;21491;-60
2022/12/25 07:57:51;;;;;;;29.50;16.62;;;;;;;3.71;100.00;100516.92;1754505;80;22015;-60
2022/12/25 08:00:19;;;;;;;26.80;15.83;;;;;;;3.72;100.00;100517.77;1755051;81;21049;-60
2022/12/25 08:02:49;;;;;;;26.80;15.70;;;;;;;3.78;100.00;100521.09;1754979;81;22439;-61
2022/12/25 08:05:17;;;;;;;25.20;16.00;;;;;;;3.87;100.00;100521.12;1754998;80;21125;-60
2022/12/25 08:07:44;;;;;;;25.15;16.15;;;;;;;3.98;100.00;100519.34;1754447;81;20994;-61
2022/12/25 08:10:11;;;;;;;26.27;16.32;;;;;;;4.10;100.00;100519.11;1755192;81;21203;-60
2022/12/25 08:12:39;;;;;;;22.10;14.80;;;;;;;4.19;100.00;100517.48;1755276;81;20946;-60
2022/12/25 08:15:07;;;;;;;25.60;14.73;;;;;;;4.27;100.00;100512.45;1754779;80;21260;-62
2022/12/25 08:17:35;;;;;;;28.00;17.48;;;;;;;4.33;100.00;100518.84;1754439;81;22112;-62
2022/12/25 08:20:03;;;;;;;25.65;15.43;;;;;;;4.38;100.00;100514.08;1755074;81;21291;-60
2022/12/25 08:22:31;;;;;;;24.82;15.45;;;;;;;4.41;100.00;100507.84;1755336;81;21090;-60
2022/12/25 08:24:59;;;;;;;23.25;15.28;;;;;;;4.43;100.00;100513.19;1755010;81;20887;-64
2022/12/25 08:27:26;;;;;;;25.00;15.18;;;;;;;4.47;100.00;100509.86;1754318;81;20911;-63
2022/12/25 08:29:53;;;;;;;24.33;15.40;;;;;;;4.39;100.00;100511.83;1755199;81;21826;-59
2022/12/25 08:32:23;;;;;;;25.43;15.70;;;;;;;4.40;100.00;100505.74;1754938;81;21166;-59
2022/12/25 08:34:50;;;;;;;28.12;16.67;;;;;;;4.43;100.00;100503.34;1755118;81;21253;-59
2022/12/25 08:37:17;;;;;;;27.03;16.50;;;;;;;4.40;100.00;100510.91;1754942;81;20991;-60
2022/12/25 08:39:44;;;;;;;26.93;15.15;;;;;;;4.37;100.00;100508.59;1754505;81;21378;-61
2022/12/25 08:42:14;;;;;;;25.95;15.68;;;;;;;4.32;100.00;100509.48;1745898;81;22055;-59
2022/12/25 08:44:41;;;;;;;26.12;16.65;;;;;;;4.30;100.00;100508.31;1755378;81;21477;-59
2022/12/25 08:47:28;;;;;;;26.42;15.72;;;;;;;4.29;100.00;100501.53;1755239;81;21181;-59
2022/12/25 08:49:55;;;;;;;23.47;14.58;;;;;;;4.29;100.00;100495.56;1693126;83;21360;-59
2022/12/25 08:52:22;;;;;;;24.92;13.80;;;;;;;4.28;100.00;100498.62;1693181;84;21023;-59
2022/12/25 08:54:50;;;;;;;24.43;14.63;;;;;;;4.29;100.00;100493.78;1693498;84;21002;-60
2022/12/25 08:57:18;;;;;;;27.17;15.18;;;;;;;4.34;100.00;100504.98;1693497;84;21086;-63
2022/12/25 08:59:45;;;;;;;23.12;14.43;;;;;;;4.41;100.00;100499.62;1692847;84;21756;-60
2022/12/25 09:02:13;;;;;;;22.00;13.20;;;;;;;4.50;100.00;100506.53;1693634;84;21459;-60
2022/12/25 09:04:40;;;;;;;26.80;13.80;;;;;;;4.58;100.00;100504.09;1693522;84;21224;-59
2022/12/25 09:07:08;;;;;;;21.05;12.82;;;;;;;4.71;100.00;100504.28;1693660;84;21026;-59
2022/12/25 09:09:36;;;;;;;22.63;13.83;;;;;;;4.86;100.00;100501.11;1692880;84;21673;-63
2022/12/25 09:12:03;;;;;;;24.60;14.15;;;;;;;5.00;100.00;100505.03;1693114;84;21605;-59
2022/12/25 09:14:30;;;;;;;23.67;14.10;;;;;;;5.12;100.00;100501.31;1693200;84;21031;-60
2022/12/25 09:16:58;;;;;;;22.87;14.10;;;;;;;5.24;100.00;100502.42;1693369;84;21254;-59
2022/12/25 09:19:25;;;;;;;23.70;13.30;;;;;;;5.35;100.00;100494.48;1693434;84;21886;-63
2022/12/25 09:21:52;;;;;;;23.70;13.30;;;;;;;5.47;100.00;100488.64;1692854;84;21283;-60
2022/12/25 09:24:20;;;;;;;25.37;13.63;;;;;;;5.56;100.00;100490.35;1693359;83;21285;-59
2022/12/25 09:26:47;;;;;;;25.43;14.53;;;;;;;5.65;100.00;100491.27;1693083;84;21316;-60
2022/12/25 09:29:16;;;;;;;26.07;15.07;;;;;;;5.77;100.00;100487.52;1693312;84;21243;-60
2022/12/25 09:31:43;;;;;;;22.33;13.53;;;;;;;5.91;100.00;100481.84;1656110;86;21297;-62
2022/12/25 09:34:12;;;;;;;21.47;12.10;;;;;;;5.96;100.00;100480.95;1652281;86;21425;-60
2022/12/25 09:36:40;;;;;;;23.23;14.30;;;;;;;6.03;100.00;100483.28;1652582;86;21190;-59
2022/12/25 09:39:07;;;;;;;22.07;13.33;;;;;;;6.09;100.00;100480.56;1652290;86;21328;-60
2022/12/25 09:41:40;;;;;;;22.00;14.43;;;;;;;6.15;100.00;100479.17;1651409;85;21028;-61
2022/12/25 09:44:10;;;;;;;23.00;14.70;;;;;;;6.12;100.00;100477.69;1655724;86;22071;-60
2022/12/25 09:46:51;;;;;;;26.63;13.93;;;;;;;6.15;100.00;100481.28;1652517;86;21651;-61
2022/12/25 09:49:51;;;;;;;22.65;13.95;;;;;;;6.20;100.00;100486.00;1691849;84;22072;-65
2022/12/25 09:52:43;;;;;;;23.77;14.40;;;;;;;6.19;100.00;100483.09;1652119;86;21542;-61
2022/12/25 09:55:17;;;;;;;22.32;13.93;;;;;;;6.23;100.00;100476.16;1651980;86;21835;-60
2022/12/25 09:57:45;;;;;;;24.40;14.63;;;;;;;6.29;100.00;100474.77;1652123;86;21454;-60
2022/12/25 10:00:15;;;;;;;24.70;14.77;;;;;;;6.32;100.00;100476.55;1652655;86;21121;-60
2022/12/25 10:02:53;;;;;;;22.23;14.27;;;;;;;6.40;100.00;100482.76;1652046;86;21258;-65
2022/12/25 10:05:51;;;;;;;22.70;14.37;;;;;;;6.48;100.00;100481.55;1693164;84;21329;-61
2022/12/25 10:08:59;;;;;;;23.83;14.40;;;;;;;6.58;100.00;100483.06;1692344;84;21163;-60
2022/12/25 10:11:59;;;;;;;26.63;14.53;;;;;;;6.61;100.00;100481.14;1692834;84;21744;-63
2022/12/25 10:15:01;;;;;;;23.80;13.90;;;;;;;6.64;100.00;100480.84;1689685;84;21317;-59
2022/12/25 10:18:01;;;;;;;23.20;14.83;;;;;;;6.74;100.00;100473.77;1693780;84;21295;-60
2022/12/25 10:20:52;;;;;;;24.47;14.77;;;;;;;6.73;100.00;100478.63;1692873;84;21327;-59
2022/12/25 10:23:32;;;;;;;22.97;13.83;;;;;;;6.66;100.00;100482.79;1652420;86;21309;-62
2022/12/25 10:25:59;;;;;;;24.53;12.53;;;;;;;6.55;100.00;100476.91;1651703;86;21272;-63
2022/12/25 10:28:38;;;;;;;20.80;12.63;;;;;;;6.49;100.00;100477.50;1652051;86;22039;-59
2022/12/25 10:31:16;;;;;;;24.20;12.97;;;;;;;6.39;100.00;100478.06;1652340;86;21942;-60
2022/12/25 10:33:43;;;;;;;22.67;13.00;;;;;;;6.28;100.00;100477.01;1651548;85;22059;-63
2022/12/25 10:36:10;;;;;;;25.00;14.10;;;;;;;6.26;100.00;100477.17;1652094;86;21279;-60
2022/12/25 10:38:37;;;;;;;21.73;13.87;;;;;;;6.28;100.00;100480.89;1652036;86;22407;-59
2022/12/25 10:41:28;;;;;;;23.47;15.43;;;;;;;6.33;100.00;100480.79;1652021;86;21282;-59
2022/12/25 10:43:56;;;;;;;21.83;13.00;;;;;;;6.44;100.00;100483.63;1651611;86;21720;-61
2022/12/25 10:46:26;;;;;;;21.17;12.53;;;;;;;6.57;100.00;100485.81;1651975;86;21293;-59
2022/12/25 10:48:58;;;;;;;20.87;12.67;;;;;;;6.60;100.00;100485.52;1651999;84;21233;-59
2022/12/25 10:51:37;;;;;;;20.33;13.10;;;;;;;6.64;100.00;100488.62;1635306;86;21381;-61
2022/12/25 10:54:18;;;;;;;19.57;11.80;;;;;;;6.67;100.00;100489.13;1635940;87;21548;-59
2022/12/25 10:56:59;;;;;;;24.82;12.93;;;;;;;6.58;100.00;100495.20;1636054;87;21876;-59
2022/12/25 10:59:29;;;;;;;19.70;12.10;;;;;;;6.71;100.00;100496.12;1635018;87;21126;-61
2022/12/25 11:02:06;;;;;;;19.47;11.57;;;;;;;6.75;100.00;100498.25;1635873;87;21973;-60
2022/12/25 11:04:33;;;;;;;19.67;12.03;;;;;;;6.74;100.00;100493.20;1635585;87;21360;-59
2022/12/25 11:07:18;;;;;;;15.90;11.03;;;;;;;6.68;100.00;100496.41;1635562;86;21178;-60
2022/12/25 11:09:54;;;;;;;22.83;14.40;;;;;;;6.65;100.00;100500.11;1635722;87;21370;-60
2022/12/25 11:12:36;;;;;;;22.63;14.47;;;;;;;6.64;100.00;100507.56;1624431;87;21763;-59
2022/12/25 11:15:08;;;;;;;22.83;12.50;;;;;;;6.65;100.00;100508.37;1678440;84;21361;-62
2022/12/25 11:17:36;;;;;;;19.70;12.17;;;;;;;6.66;100.00;100505.62;1680902;85;21256;-60
2022/12/25 11:20:07;;;;;;;19.20;10.97;;;;;;;6.72;100.00;100505.51;1683831;85;21043;-65
2022/12/25 11:22:36;;;;;;;18.23;11.22;;;;;;;6.71;100.00;100503.41;1681387;84;21706;-62
2022/12/25 11:25:14;;;;;;;19.30;11.90;;;;;;;6.71;100.00;100503.41;1683482;84;21441;-61
2022/12/25 11:27:42;;;;;;;17.40;11.37;;;;;;;6.75;100.00;100501.33;1684265;83;21181;-60
2022/12/25 11:30:12;;;;;;;19.50;11.40;;;;;;;6.83;100.00;100497.48;1683367;85;21710;-61
2022/12/25 11:32:47;;;;;;;17.50;11.60;;;;;;;6.94;100.00;100498.52;1683332;85;21577;-63
2022/12/25 11:35:17;;;;;;;17.43;10.47;;;;;;;6.98;100.00;100499.03;1683850;85;21605;-61
2022/12/25 11:37:47;;;;;;;15.70;10.50;;;;;;;7.01;100.00;100506.02;1683894;85;21292;-61
2022/12/25 11:40:19;;;;;;;15.60;10.57;;;;;;;6.92;100.00;100500.44;1683476;85;21073;-61
2022/12/25 11:43:02;;;;;;;18.90;12.73;;;;;;;6.79;100.00;100504.75;1683618;85;21985;-60
2022/12/25 11:45:34;;;;;;;18.57;10.87;;;;;;;6.72;100.00;100501.63;1682172;85;21295;-61
2022/12/25 11:48:18;;;;;;;23.90;12.50;;;;;;;6.63;100.00;100507.69;1666175;85;21317;-64
2022/12/25 11:50:48;;;;;;;22.13;12.30;;;;;;;6.55;100.00;100503.27;1662245;84;21688;-60
2022/12/25 11:53:50;;;;;;;22.20;12.70;;;;;;;6.48;100.00;100508.74;1654909;85;21152;-62
2022/12/25 11:56:24;;;;;;;16.47;10.90;;;;;;;6.36;100.00;100506.03;1652892;85;21771;-60
2022/12/25 11:59:00;;;;;;;18.40;11.23;;;;;;;6.21;100.00;100500.56;1652949;85;21492;-60
2022/12/25 12:02:03;;;;;;;16.83;10.40;;;;;;;6.09;100.00;100507.73;1652796;85;21348;-59
2022/12/25 12:04:40;;;;;;;20.40;10.87;;;;;;;5.95;100.00;100503.91;1652350;85;21222;-61
2022/12/25 12:07:26;;;;;;;17.17;10.90;;;;;;;5.85;100.00;100505.70;1653300;85;21781;-60
2022/12/25 12:10:35;;;;;;;16.73;9.60;;;;;;;5.80;100.00;100505.34;1652427;86;21708;-59
2022/12/25 12:13:25;;;;;;;20.33;11.33;;;;;;;5.68;100.00;100510.36;1652922;85;21306;-60
2022/12/25 12:15:52;;;;;;;15.87;10.97;;;;;;;5.67;100.00;100508.73;1652338;86;22540;-60
2022/12/25 12:18:29;;;;;;;17.43;10.97;;;;;;;5.64;100.00;100510.31;1653379;86;21473;-60
2022/12/25 12:21:19;;;;;;;15.90;10.57;;;;;;;5.57;100.00;100510.10;1652900;85;21316;-60
2022/12/25 12:23:58;;;;;;;16.57;10.53;;;;;;;5.52;100.00;100505.82;1652768;85;21548;-60
2022/12/25 12:26:28;;;;;;;18.70;11.33;;;;;;;5.42;100.00;100509.77;1654436;85;21889;-60
2022/12/25 12:28:57;;;;;;;15.07;9.47;;;;;;;5.35;100.00;100513.88;1652686;86;21189;-64
2022/12/25 12:31:24;;;;;;;20.70;11.67;;;;;;;5.28;100.00;100520.08;1652572;86;22423;-60
2022/12/25 12:33:55;;;;;;;17.43;11.50;;;;;;;5.11;100.00;100516.94;1653837;86;21127;-59
2022/12/25 12:36:25;;;;;;;16.97;11.00;;;;;;;5.08;100.00;100523.22;1640569;86;21212;-59
2022/12/25 12:38:51;;;;;;;19.00;12.07;;;;;;;5.00;100.00;100520.53;1642962;86;21261;-61
2022/12/25 12:41:20;;;;;;;19.83;11.97;;;;;;;5.09;100.00;100526.61;1652649;86;21293;-60
2022/12/25 12:44:01;;;;;;;16.57;10.87;;;;;;;5.07;100.00;100524.16;1652794;85;21121;-61
2022/12/25 12:46:34;;;;;;;21.82;12.65;;;;;;;5.00;100.00;100530.86;1652668;86;21308;-61
2022/12/25 12:49:27;;;;;;;20.77;14.07;;;;;;;4.95;100.00;100526.57;1651965;86;21352;-61
2022/12/25 12:52:34;;;;;;;21.67;12.83;;;;;;;4.92;100.00;100528.14;1653459;85;21024;-60
2022/12/25 12:55:11;;;;;;;21.93;13.27;;;;;;;4.84;100.00;100528.02;1653980;86;21308;-62
2022/12/25 12:57:39;;;;;;;21.37;14.35;;;;;;;4.78;100.00;100526.02;1652344;85;21283;-65
2022/12/25 13:00:16;;;;;;;21.00;13.98;;;;;;;4.73;100.00;100531.57;1652476;86;21115;-61
2022/12/25 13:03:11;;;;;;;20.02;12.82;;;;;;;4.66;100.00;100529.23;1653066;86;21431;-61
2022/12/25 13:06:11;;;;;;;21.65;13.88;;;;;;;4.60;100.00;100533.16;1652727;85;21004;-60
2022/12/25 13:09:24;;;;;;;21.97;13.68;;;;;;;4.50;100.00;100538.80;1653873;85;21146;-59
2022/12/25 13:11:51;;;;;;;22.85;14.87;;;;;;;4.43;100.00;100536.42;1653144;86;21027;-60
2022/12/25 13:14:21;;;;;;;20.88;13.40;;;;;;;4.35;100.00;100541.45;1652753;86;20977;-63
2022/12/25 13:16:49;;;;;;;22.00;13.20;;;;;;;4.24;100.00;100544.97;1653225;85;21837;-60
2022/12/25 13:19:25;;;;;;;21.43;14.70;;;;;;;4.18;100.00;100549.88;1652585;85;20997;-60